There are multiple Weather-warnings   Click here for more information


Meteo18 Weather Cam more information Meteo18 Weather Cam


warning for Thunderstorms more information blitzortung!


Rain radar more information rain snow radar


Visit our other weather sites:

Template documentation
and downloads

And another site



Weather Underground History page Text

Daily Summary for July 26, 2017 Units:  Both    English   Metric
« Previous Day
Next Day »
Daily Weekly Monthly Yearly Custom
  High: Low: Average:
Temperature: 72 °F /  22.2 °C 52.2 °F /  11.2 °C 62.2 °F /  16.8 °C
Dew Point: 62.8 °F /  17.1 °C 50.5 °F /  10.3 °C 57.7 °F /  14.3 °C
Humidity: 94 % 62 % 86 %
Wind Speed: 13 mph /  20.9 km/h - 4.3 mph /  6.9 km/h
Wind Gust: 20 mph /  32.2 km/h - -
Wind:- - WSW
Pressure: 30 in /  1016.8 hPa 30 in /  1014.4 hPa -
Precipitation: 0 in /  0.0 mm    
Historical Graphs
 
 
Tabular Data for July 26, 2017
Time Temperature Dew Point Pressure Wind Wind Speed Wind Gust Humidity Rainfall Rate (Hourly)
00:02 60.1 °F /  15.6 °C 57.2 °F /  14.0 °C 30 in /  1015.5 hPa Calm   1 mph /  1.6 km/h 90 % 0 in /  0.0 mm
00:12 59.5 °F /  15.3 °C 56.7 °F /  13.7 °C 30 in /  1015.5 hPa Calm   1 mph /  1.6 km/h 90 % 0 in /  0.0 mm
00:17 59.5 °F /  15.3 °C 56.7 °F /  13.7 °C 30 in /  1015.5 hPa Calm   1 mph /  1.6 km/h 90 % 0 in /  0.0 mm
00:22 59.4 °F /  15.2 °C 56.7 °F /  13.7 °C 30 in /  1015.5 hPa Calm   1 mph /  1.6 km/h 91 % 0 in /  0.0 mm
00:32 58.6 °F /  14.8 °C 55.9 °F /  13.3 °C 30 in /  1015.5 hPa WNW 1 mph /  1.6 km/h 2 mph /  3.2 km/h 91 % 0 in /  0.0 mm
00:42 58.8 °F /  14.9 °C 56.5 °F /  13.6 °C 30 in /  1015.8 hPa WNW 1 mph /  1.6 km/h 2 mph /  3.2 km/h 92 % 0 in /  0.0 mm
00:52 59.7 °F /  15.4 °C 57.4 °F /  14.1 °C 30 in /  1015.8 hPa WNW 4 mph /  6.4 km/h 4 mph /  6.4 km/h 92 % 0 in /  0.0 mm
00:57 60.3 °F /  15.7 °C 57.4 °F /  14.1 °C 30 in /  1015.8 hPa WNW 2 mph /  3.2 km/h 6 mph /  9.7 km/h 90 % 0 in /  0.0 mm
01:02 60.4 °F /  15.8 °C 57.2 °F /  14.0 °C 30 in /  1015.8 hPa NNW 1 mph /  1.6 km/h 6 mph /  9.7 km/h 89 % 0 in /  0.0 mm
01:12 60.3 °F /  15.7 °C 57 °F /  13.9 °C 30 in /  1015.8 hPa WNW 2 mph /  3.2 km/h 6 mph /  9.7 km/h 89 % 0 in /  0.0 mm
01:17 60.3 °F /  15.7 °C 57 °F /  13.9 °C 30 in /  1015.8 hPa WNW 2 mph /  3.2 km/h 5 mph /  8.0 km/h 89 % 0 in /  0.0 mm
01:22 60.1 °F /  15.6 °C 56.8 °F /  13.8 °C 30 in /  1016.1 hPa NW 1 mph /  1.6 km/h 4 mph /  6.4 km/h 89 % 0 in /  0.0 mm
01:32 59.5 °F /  15.3 °C 56.7 °F /  13.7 °C 30 in /  1015.8 hPa WNW 1 mph /  1.6 km/h 4 mph /  6.4 km/h 90 % 0 in /  0.0 mm
01:37 59.5 °F /  15.3 °C 56.7 °F /  13.7 °C 30 in /  1016.1 hPa NW 1 mph /  1.6 km/h 3 mph /  4.8 km/h 90 % 0 in /  0.0 mm
01:42 59.4 °F /  15.2 °C 56.5 °F /  13.6 °C 30 in /  1015.8 hPa NNW 1 mph /  1.6 km/h 3 mph /  4.8 km/h 90 % 0 in /  0.0 mm
01:47 59.4 °F /  15.2 °C 56.5 °F /  13.6 °C 30 in /  1015.8 hPa NW 1 mph /  1.6 km/h 3 mph /  4.8 km/h 90 % 0 in /  0.0 mm
01:52 59.2 °F /  15.1 °C 56.3 °F /  13.5 °C 30 in /  1015.8 hPa NNW 2 mph /  3.2 km/h 3 mph /  4.8 km/h 90 % 0 in /  0.0 mm
01:57 59.2 °F /  15.1 °C 56.3 °F /  13.5 °C 30 in /  1015.8 hPa Calm   3 mph /  4.8 km/h 90 % 0 in /  0.0 mm
02:02 59.4 °F /  15.2 °C 56.1 °F /  13.4 °C 30 in /  1015.8 hPa NNW 2 mph /  3.2 km/h 3 mph /  4.8 km/h 89 % 0 in /  0.0 mm
02:07 59.4 °F /  15.2 °C 56.1 °F /  13.4 °C 30 in /  1015.8 hPa North 1 mph /  1.6 km/h 4 mph /  6.4 km/h 89 % 0 in /  0.0 mm
02:12 59.4 °F /  15.2 °C 56.1 °F /  13.4 °C 30 in /  1015.8 hPa NNW 1 mph /  1.6 km/h 4 mph /  6.4 km/h 89 % 0 in /  0.0 mm
02:17 59.2 °F /  15.1 °C 55.9 °F /  13.3 °C 30 in /  1015.8 hPa NNW 1 mph /  1.6 km/h 4 mph /  6.4 km/h 89 % 0 in /  0.0 mm
02:22 59 °F /  15.0 °C 55.8 °F /  13.2 °C 30 in /  1015.8 hPa NNW 1 mph /  1.6 km/h 3 mph /  4.8 km/h 89 % 0 in /  0.0 mm
02:32 58.8 °F /  14.9 °C 55.2 °F /  12.9 °C 30 in /  1015.8 hPa NNW 2 mph /  3.2 km/h 3 mph /  4.8 km/h 88 % 0 in /  0.0 mm
02:42 58.6 °F /  14.8 °C 55 °F /  12.8 °C 30 in /  1015.8 hPa NW 2 mph /  3.2 km/h 3 mph /  4.8 km/h 88 % 0 in /  0.0 mm
02:52 58.5 °F /  14.7 °C 54.9 °F /  12.7 °C 30 in /  1015.8 hPa NW 2 mph /  3.2 km/h 3 mph /  4.8 km/h 88 % 0 in /  0.0 mm
02:57 58.3 °F /  14.6 °C 54.7 °F /  12.6 °C 30 in /  1015.8 hPa NW 2 mph /  3.2 km/h 4 mph /  6.4 km/h 88 % 0 in /  0.0 mm
03:02 57.9 °F /  14.4 °C 54.7 °F /  12.6 °C 30 in /  1015.8 hPa NNW 3 mph /  4.8 km/h 4 mph /  6.4 km/h 89 % 0 in /  0.0 mm
03:12 57.9 °F /  14.4 °C 54.3 °F /  12.4 °C 30 in /  1015.8 hPa NNW 2 mph /  3.2 km/h 4 mph /  6.4 km/h 88 % 0 in /  0.0 mm
03:17 57.9 °F /  14.4 °C 54.3 °F /  12.4 °C 30 in /  1015.8 hPa NNW 3 mph /  4.8 km/h 4 mph /  6.4 km/h 88 % 0 in /  0.0 mm
03:22 57.9 °F /  14.4 °C 54.3 °F /  12.4 °C 30 in /  1016.1 hPa NNW 3 mph /  4.8 km/h 4 mph /  6.4 km/h 88 % 0 in /  0.0 mm
03:32 57.4 °F /  14.1 °C 53.8 °F /  12.1 °C 30 in /  1015.8 hPa North 1 mph /  1.6 km/h 4 mph /  6.4 km/h 88 % 0 in /  0.0 mm
03:37 57.4 °F /  14.1 °C 54.1 °F /  12.3 °C 30 in /  1015.8 hPa NNW 2 mph /  3.2 km/h 4 mph /  6.4 km/h 89 % 0 in /  0.0 mm
03:42 57.4 °F /  14.1 °C 54.1 °F /  12.3 °C 30 in /  1015.8 hPa NNW 2 mph /  3.2 km/h 4 mph /  6.4 km/h 89 % 0 in /  0.0 mm
03:52 57.4 °F /  14.1 °C 53.8 °F /  12.1 °C 30 in /  1015.8 hPa NW 2 mph /  3.2 km/h 3 mph /  4.8 km/h 88 % 0 in /  0.0 mm
03:57 57.2 °F /  14.0 °C 53.6 °F /  12.0 °C 30 in /  1015.8 hPa NNW 2 mph /  3.2 km/h 3 mph /  4.8 km/h 88 % 0 in /  0.0 mm
04:02 57 °F /  13.9 °C 53.4 °F /  11.9 °C 30 in /  1015.8 hPa NW 1 mph /  1.6 km/h 3 mph /  4.8 km/h 88 % 0 in /  0.0 mm
04:12 57 °F /  13.9 °C 53.4 °F /  11.9 °C 30 in /  1015.8 hPa WNW 1 mph /  1.6 km/h 3 mph /  4.8 km/h 88 % 0 in /  0.0 mm
04:17 56.8 °F /  13.8 °C 53.2 °F /  11.8 °C 30 in /  1016.1 hPa WNW 1 mph /  1.6 km/h 3 mph /  4.8 km/h 88 % 0 in /  0.0 mm
04:22 56.5 °F /  13.6 °C 52.9 °F /  11.6 °C 30 in /  1015.8 hPa Calm   2 mph /  3.2 km/h 88 % 0 in /  0.0 mm
04:32 56.1 °F /  13.4 °C 52.7 °F /  11.5 °C 30 in /  1016.1 hPa Calm   3 mph /  4.8 km/h 88 % 0 in /  0.0 mm
04:37 55.9 °F /  13.3 °C 52.5 °F /  11.4 °C 30 in /  1015.8 hPa Calm   3 mph /  4.8 km/h 88 % 0 in /  0.0 mm
04:42 55.8 °F /  13.2 °C 52.5 °F /  11.4 °C 30 in /  1015.8 hPa West 1 mph /  1.6 km/h 3 mph /  4.8 km/h 89 % 0 in /  0.0 mm
04:47 55.9 °F /  13.3 °C 52.7 °F /  11.5 °C 30 in /  1015.8 hPa WNW 1 mph /  1.6 km/h 2 mph /  3.2 km/h 89 % 0 in /  0.0 mm
04:52 56.3 °F /  13.5 °C 52.9 °F /  11.6 °C 30 in /  1015.8 hPa Calm   2 mph /  3.2 km/h 88 % 0 in /  0.0 mm
04:57 56.7 °F /  13.7 °C 52.9 °F /  11.6 °C 30 in /  1015.8 hPa Calm   2 mph /  3.2 km/h 87 % 0 in /  0.0 mm
05:02 56.5 °F /  13.6 °C 52.7 °F /  11.5 °C 30 in /  1015.8 hPa Calm   2 mph /  3.2 km/h 87 % 0 in /  0.0 mm
05:12 55.8 °F /  13.2 °C 52.3 °F /  11.3 °C 30 in /  1015.8 hPa Calm   1 mph /  1.6 km/h 88 % 0 in /  0.0 mm
05:17 55.6 °F /  13.1 °C 52.2 °F /  11.2 °C 30 in /  1015.8 hPa Calm   1 mph /  1.6 km/h 88 % 0 in /  0.0 mm
05:27 54.9 °F /  12.7 °C 52 °F /  11.1 °C 30 in /  1015.5 hPa Calm     90 % 0 in /  0.0 mm
05:32 54.7 °F /  12.6 °C 51.8 °F /  11.0 °C 30 in /  1015.8 hPa Calm     90 % 0 in /  0.0 mm
05:37 54.3 °F /  12.4 °C 51.4 °F /  10.8 °C 30 in /  1015.8 hPa Calm     90 % 0 in /  0.0 mm
05:42 54.1 °F /  12.3 °C 51.6 °F /  10.9 °C 30 in /  1015.5 hPa Calm     91 % 0 in /  0.0 mm
05:52 54.1 °F /  12.3 °C 51.6 °F /  10.9 °C 30 in /  1015.8 hPa Calm     91 % 0 in /  0.0 mm
05:57 54 °F /  12.2 °C 51.4 °F /  10.8 °C 30 in /  1015.5 hPa Calm     91 % 0 in /  0.0 mm
06:02 53.8 °F /  12.1 °C 51.4 °F /  10.8 °C 30 in /  1015.8 hPa Calm     92 % 0 in /  0.0 mm
06:12 53.2 °F /  11.8 °C 50.9 °F /  10.5 °C 30 in /  1015.8 hPa Calm     92 % 0 in /  0.0 mm
06:17 53.1 °F /  11.7 °C 50.7 °F /  10.4 °C 30 in /  1015.5 hPa Calm     92 % 0 in /  0.0 mm
06:27 53.1 °F /  11.7 °C 51.1 °F /  10.6 °C 30 in /  1015.8 hPa Calm     93 % 0 in /  0.0 mm
06:32 52.9 °F /  11.6 °C 50.9 °F /  10.5 °C 30 in /  1015.8 hPa Calm     93 % 0 in /  0.0 mm
06:42 52.9 °F /  11.6 °C 51.3 °F /  10.7 °C 30 in /  1015.8 hPa Calm     94 % 0 in /  0.0 mm
06:47 52.9 °F /  11.6 °C 51.3 °F /  10.7 °C 30 in /  1015.8 hPa Calm     94 % 0 in /  0.0 mm
06:52 52.5 °F /  11.4 °C 50.9 °F /  10.5 °C 30 in /  1015.8 hPa Calm     94 % 0 in /  0.0 mm
07:02 52.2 °F /  11.2 °C 50.5 °F /  10.3 °C 30 in /  1015.8 hPa Calm     94 % 0 in /  0.0 mm
07:12 53.2 °F /  11.8 °C 51.6 °F /  10.9 °C 30 in /  1015.8 hPa Calm     94 % 0 in /  0.0 mm
07:17 53.6 °F /  12.0 °C 51.6 °F /  10.9 °C 30 in /  1016.1 hPa Calm     93 % 0 in /  0.0 mm
07:22 54.1 °F /  12.3 °C 52.2 °F /  11.2 °C 30 in /  1015.8 hPa Calm     93 % 0 in /  0.0 mm
07:27 54.1 °F /  12.3 °C 51.8 °F /  11.0 °C 30 in /  1016.1 hPa Calm     92 % 0 in /  0.0 mm
07:32 54.3 °F /  12.4 °C 52.3 °F /  11.3 °C 30 in /  1016.1 hPa Calm     93 % 0 in /  0.0 mm
07:37 55.2 °F /  12.9 °C 52.9 °F /  11.6 °C 30 in /  1015.8 hPa Calm     92 % 0 in /  0.0 mm
07:42 55.8 °F /  13.2 °C 52.9 °F /  11.6 °C 30 in /  1015.8 hPa Calm     90 % 0 in /  0.0 mm
07:47 55.9 °F /  13.3 °C 53.1 °F /  11.7 °C 30 in /  1016.1 hPa Calm     90 % 0 in /  0.0 mm
07:52 55.9 °F /  13.3 °C 52.7 °F /  11.5 °C 30 in /  1016.1 hPa Calm     89 % 0 in /  0.0 mm
07:57 56.7 °F /  13.7 °C 53.8 °F /  12.1 °C 30 in /  1016.1 hPa Calm     90 % 0 in /  0.0 mm
08:02 57.4 °F /  14.1 °C 54.1 °F /  12.3 °C 30 in /  1016.1 hPa Calm     89 % 0 in /  0.0 mm
08:07 57.7 °F /  14.3 °C 54.1 °F /  12.3 °C 30 in /  1016.1 hPa Calm     88 % 0 in /  0.0 mm
08:12 58.3 °F /  14.6 °C 54.7 °F /  12.6 °C 30 in /  1016.1 hPa Calm     88 % 0 in /  0.0 mm
08:17 59 °F /  15.0 °C 55.4 °F /  13.0 °C 30 in /  1016.1 hPa Calm     88 % 0 in /  0.0 mm
08:22 59.4 °F /  15.2 °C 55.8 °F /  13.2 °C 30 in /  1016.1 hPa Calm     88 % 0 in /  0.0 mm
08:27 59.7 °F /  15.4 °C 56.1 °F /  13.4 °C 30 in /  1016.1 hPa SSW 1 mph /  1.6 km/h 3 mph /  4.8 km/h 88 % 0 in /  0.0 mm
08:32 59.9 °F /  15.5 °C 56.3 °F /  13.5 °C 30 in /  1016.1 hPa SSW 1 mph /  1.6 km/h 3 mph /  4.8 km/h 88 % 0 in /  0.0 mm
08:37 60.3 °F /  15.7 °C 56.7 °F /  13.7 °C 30 in /  1015.8 hPa SW 2 mph /  3.2 km/h 3 mph /  4.8 km/h 88 % 0 in /  0.0 mm
08:42 60.3 °F /  15.7 °C 57 °F /  13.9 °C 30 in /  1015.8 hPa SE 1 mph /  1.6 km/h 3 mph /  4.8 km/h 89 % 0 in /  0.0 mm
08:52 60.3 °F /  15.7 °C 57 °F /  13.9 °C 30 in /  1016.1 hPa South 2 mph /  3.2 km/h 5 mph /  8.0 km/h 89 % 0 in /  0.0 mm
09:02 59.5 °F /  15.3 °C 56.7 °F /  13.7 °C 30 in /  1015.8 hPa South 2 mph /  3.2 km/h 6 mph /  9.7 km/h 90 % 0 in /  0.0 mm
09:12 59.2 °F /  15.1 °C 56.5 °F /  13.6 °C 30 in /  1016.1 hPa SSW 2 mph /  3.2 km/h 8 mph /  12.9 km/h 91 % 0 in /  0.0 mm
09:17 59 °F /  15.0 °C 56.3 °F /  13.5 °C 30 in /  1016.1 hPa SW 9 mph /  14.5 km/h 9 mph /  14.5 km/h 91 % 0 in /  0.0 mm
09:22 58.8 °F /  14.9 °C 56.5 °F /  13.6 °C 30 in /  1016.1 hPa SW 8 mph /  12.9 km/h 9 mph /  14.5 km/h 92 % 0 in /  0.0 mm
09:32 58.5 °F /  14.7 °C 56.1 °F /  13.4 °C 30 in /  1016.5 hPa WSW 7 mph /  11.3 km/h 10 mph /  16.1 km/h 92 % 0 in /  0.0 mm
09:42 57.9 °F /  14.4 °C 55.9 °F /  13.3 °C 30 in /  1016.5 hPa WSW 6 mph /  9.7 km/h 11 mph /  17.7 km/h 93 % 0 in /  0.0 mm
09:47 57.6 °F /  14.2 °C 55.6 °F /  13.1 °C 30 in /  1016.5 hPa WSW 9 mph /  14.5 km/h 11 mph /  17.7 km/h 93 % 0 in /  0.0 mm
09:52 57.7 °F /  14.3 °C 55.9 °F /  13.3 °C 30 in /  1016.5 hPa SW 7 mph /  11.3 km/h 11 mph /  17.7 km/h 94 % 0 in /  0.0 mm
09:57 57.7 °F /  14.3 °C 55.9 °F /  13.3 °C 30 in /  1016.5 hPa SSW 9 mph /  14.5 km/h 13 mph /  20.9 km/h 94 % 0 in /  0.0 mm
10:02 57.9 °F /  14.4 °C 56.1 °F /  13.4 °C 30 in /  1016.5 hPa SW 1 mph /  1.6 km/h 13 mph /  20.9 km/h 94 % 0 in /  0.0 mm
10:12 58.3 °F /  14.6 °C 56.3 °F /  13.5 °C 30 in /  1016.5 hPa WSW 7 mph /  11.3 km/h 12 mph /  19.3 km/h 93 % 0 in /  0.0 mm
10:17 58.5 °F /  14.7 °C 56.7 °F /  13.7 °C 30 in /  1016.5 hPa West 4 mph /  6.4 km/h 11 mph /  17.7 km/h 94 % 0 in /  0.0 mm
10:27 59 °F /  15.0 °C 57 °F /  13.9 °C 30 in /  1016.8 hPa West 3 mph /  4.8 km/h 11 mph /  17.7 km/h 93 % 0 in /  0.0 mm
10:32 59 °F /  15.0 °C 56.7 °F /  13.7 °C 30 in /  1016.5 hPa WSW 6 mph /  9.7 km/h 11 mph /  17.7 km/h 92 % 0 in /  0.0 mm
10:37 59.2 °F /  15.1 °C 56.8 °F /  13.8 °C 30 in /  1016.5 hPa SW 5 mph /  8.0 km/h 12 mph /  19.3 km/h 92 % 0 in /  0.0 mm
10:42 59.2 °F /  15.1 °C 56.8 °F /  13.8 °C 30 in /  1016.8 hPa SW 5 mph /  8.0 km/h 12 mph /  19.3 km/h 92 % 0 in /  0.0 mm
10:52 59.7 °F /  15.4 °C 57.4 °F /  14.1 °C 30 in /  1016.5 hPa West 5 mph /  8.0 km/h 12 mph /  19.3 km/h 92 % 0 in /  0.0 mm
11:02 59.9 °F /  15.5 °C 57.2 °F /  14.0 °C 30 in /  1016.5 hPa SW 8 mph /  12.9 km/h 11 mph /  17.7 km/h 91 % 0 in /  0.0 mm
11:07 59.9 °F /  15.5 °C 57 °F /  13.9 °C 30 in /  1016.5 hPa West 2 mph /  3.2 km/h 12 mph /  19.3 km/h 90 % 0 in /  0.0 mm
11:12 60.4 °F /  15.8 °C 57.6 °F /  14.2 °C 30 in /  1016.5 hPa WSW 8 mph /  12.9 km/h 12 mph /  19.3 km/h 90 % 0 in /  0.0 mm
11:17 60.6 °F /  15.9 °C 57.7 °F /  14.3 °C 30 in /  1016.5 hPa SW 5 mph /  8.0 km/h 12 mph /  19.3 km/h 90 % 0 in /  0.0 mm
11:22 61.3 °F /  16.3 °C 57.7 °F /  14.3 °C 30 in /  1016.1 hPa West 5 mph /  8.0 km/h 12 mph /  19.3 km/h 88 % 0 in /  0.0 mm
11:32 62.1 °F /  16.7 °C 57.7 °F /  14.3 °C 30 in /  1016.1 hPa WSW 6 mph /  9.7 km/h 13 mph /  20.9 km/h 86 % 0 in /  0.0 mm
11:37 62.2 °F /  16.8 °C 57.9 °F /  14.4 °C 30 in /  1016.1 hPa WSW 8 mph /  12.9 km/h 13 mph /  20.9 km/h 86 % 0 in /  0.0 mm
11:42 62.1 °F /  16.7 °C 57.7 °F /  14.3 °C 30 in /  1016.1 hPa SW 6 mph /  9.7 km/h 13 mph /  20.9 km/h 86 % 0 in /  0.0 mm
11:52 62.1 °F /  16.7 °C 57.7 °F /  14.3 °C 30 in /  1016.1 hPa West 8 mph /  12.9 km/h 10 mph /  16.1 km/h 86 % 0 in /  0.0 mm
12:02 61.9 °F /  16.6 °C 58.3 °F /  14.6 °C 30 in /  1016.5 hPa WSW 7 mph /  11.3 km/h 11 mph /  17.7 km/h 88 % 0 in /  0.0 mm
12:07 61.9 °F /  16.6 °C 58.3 °F /  14.6 °C 30 in /  1016.5 hPa WSW 6 mph /  9.7 km/h 13 mph /  20.9 km/h 88 % 0 in /  0.0 mm
12:12 61.9 °F /  16.6 °C 58.3 °F /  14.6 °C 30 in /  1016.5 hPa WSW 12 mph /  19.3 km/h 13 mph /  20.9 km/h 88 % 0 in /  0.0 mm
12:17 62.1 °F /  16.7 °C 58.5 °F /  14.7 °C 30 in /  1016.1 hPa WSW 5 mph /  8.0 km/h 13 mph /  20.9 km/h 88 % 0 in /  0.0 mm
12:22 62.2 °F /  16.8 °C 58.3 °F /  14.6 °C 30 in /  1016.1 hPa WNW 6 mph /  9.7 km/h 13 mph /  20.9 km/h 87 % 0 in /  0.0 mm
12:27 62.8 °F /  17.1 °C 58.8 °F /  14.9 °C 30 in /  1016.1 hPa SSW 2 mph /  3.2 km/h 13 mph /  20.9 km/h 87 % 0 in /  0.0 mm
12:32 63.3 °F /  17.4 °C 59 °F /  15.0 °C 30 in /  1016.1 hPa WSW 9 mph /  14.5 km/h 13 mph /  20.9 km/h 86 % 0 in /  0.0 mm
12:37 64 °F /  17.8 °C 59.2 °F /  15.1 °C 30 in /  1016.1 hPa West 5 mph /  8.0 km/h 13 mph /  20.9 km/h 84 % 0 in /  0.0 mm
12:42 65.1 °F /  18.4 °C 59.9 °F /  15.5 °C 30 in /  1016.1 hPa West 3 mph /  4.8 km/h 12 mph /  19.3 km/h 83 % 0 in /  0.0 mm
12:52 66.7 °F /  19.3 °C 60.4 °F /  15.8 °C 30 in /  1016.1 hPa WSW 7 mph /  11.3 km/h 12 mph /  19.3 km/h 80 % 0 in /  0.0 mm
13:02 66.7 °F /  19.3 °C 60.1 °F /  15.6 °C 30 in /  1016.1 hPa SW 11 mph /  17.7 km/h 11 mph /  17.7 km/h 79 % 0 in /  0.0 mm
13:12 67.3 °F /  19.6 °C 59.9 °F /  15.5 °C 30 in /  1015.8 hPa SW 9 mph /  14.5 km/h 12 mph /  19.3 km/h 77 % 0 in /  0.0 mm
13:22 68.9 °F /  20.5 °C 59.9 °F /  15.5 °C 30 in /  1015.8 hPa WNW 6 mph /  9.7 km/h 13 mph /  20.9 km/h 73 % 0 in /  0.0 mm
13:32 69.1 °F /  20.6 °C 60.1 °F /  15.6 °C 30 in /  1015.5 hPa West 6 mph /  9.7 km/h 17 mph /  27.4 km/h 73 % 0 in /  0.0 mm
13:37 69.4 °F /  20.8 °C 59.2 °F /  15.1 °C 30 in /  1015.5 hPa West 8 mph /  12.9 km/h 17 mph /  27.4 km/h 70 % 0 in /  0.0 mm
13:42 69.6 °F /  20.9 °C 59.7 °F /  15.4 °C 30 in /  1015.5 hPa WSW 11 mph /  17.7 km/h 17 mph /  27.4 km/h 71 % 0 in /  0.0 mm
13:47 70.2 °F /  21.2 °C 59.2 °F /  15.1 °C 30 in /  1015.5 hPa SW 11 mph /  17.7 km/h 17 mph /  27.4 km/h 68 % 0 in /  0.0 mm
13:52 70.9 °F /  21.6 °C 59.4 °F /  15.2 °C 30 in /  1015.5 hPa SW 10 mph /  16.1 km/h 15 mph /  24.1 km/h 67 % 0 in /  0.0 mm
13:57 70.9 °F /  21.6 °C 59 °F /  15.0 °C 30 in /  1015.5 hPa WNW 6 mph /  9.7 km/h 15 mph /  24.1 km/h 66 % 0 in /  0.0 mm
14:02 70.9 °F /  21.6 °C 59.4 °F /  15.2 °C 30 in /  1015.5 hPa SSE 4 mph /  6.4 km/h 15 mph /  24.1 km/h 67 % 0 in /  0.0 mm
14:12 72 °F /  22.2 °C 59.5 °F /  15.3 °C 30 in /  1015.1 hPa WSW 7 mph /  11.3 km/h 15 mph /  24.1 km/h 65 % 0 in /  0.0 mm
14:17 71.4 °F /  21.9 °C 58.6 °F /  14.8 °C 30 in /  1015.5 hPa SW 8 mph /  12.9 km/h 15 mph /  24.1 km/h 64 % 0 in /  0.0 mm
14:22 71.2 °F /  21.8 °C 58.8 °F /  14.9 °C 30 in /  1015.1 hPa SW 12 mph /  19.3 km/h 17 mph /  27.4 km/h 65 % 0 in /  0.0 mm
14:27 70.9 °F /  21.6 °C 58.1 °F /  14.5 °C 30 in /  1015.1 hPa SW 9 mph /  14.5 km/h 17 mph /  27.4 km/h 64 % 0 in /  0.0 mm
14:32 70.9 °F /  21.6 °C 58.5 °F /  14.7 °C 30 in /  1015.1 hPa SW 6 mph /  9.7 km/h 17 mph /  27.4 km/h 65 % 0 in /  0.0 mm
14:42 70.9 °F /  21.6 °C 59.7 °F /  15.4 °C 30 in /  1015.1 hPa SW 11 mph /  17.7 km/h 15 mph /  24.1 km/h 68 % 0 in /  0.0 mm
14:47 70.9 °F /  21.6 °C 58.5 °F /  14.7 °C 30 in /  1015.1 hPa West 8 mph /  12.9 km/h 15 mph /  24.1 km/h 65 % 0 in /  0.0 mm
14:57 70.7 °F /  21.5 °C 57.6 °F /  14.2 °C 30 in /  1015.1 hPa WNW 9 mph /  14.5 km/h 17 mph /  27.4 km/h 63 % 0 in /  0.0 mm
15:02 70.5 °F /  21.4 °C 57.7 °F /  14.3 °C 30 in /  1015.1 hPa West 8 mph /  12.9 km/h 17 mph /  27.4 km/h 64 % 0 in /  0.0 mm
15:12 70.9 °F /  21.6 °C 58.5 °F /  14.7 °C 30 in /  1015.1 hPa SW 5 mph /  8.0 km/h 17 mph /  27.4 km/h 65 % 0 in /  0.0 mm
15:17 71.1 °F /  21.7 °C 57.7 °F /  14.3 °C 30 in /  1015.1 hPa South 3 mph /  4.8 km/h 18 mph /  29.0 km/h 63 % 0 in /  0.0 mm
15:22 71.1 °F /  21.7 °C 57.4 °F /  14.1 °C 30 in /  1015.1 hPa West 8 mph /  12.9 km/h 18 mph /  29.0 km/h 62 % 0 in /  0.0 mm
15:27 71.2 °F /  21.8 °C 57.9 °F /  14.4 °C 30 in /  1015.1 hPa SW 10 mph /  16.1 km/h 18 mph /  29.0 km/h 63 % 0 in /  0.0 mm
15:32 70.9 °F /  21.6 °C 57.7 °F /  14.3 °C 30 in /  1015.1 hPa SW 4 mph /  6.4 km/h 18 mph /  29.0 km/h 63 % 0 in /  0.0 mm
15:37 70.5 °F /  21.4 °C 57.7 °F /  14.3 °C 30 in /  1015.1 hPa SW 5 mph /  8.0 km/h 17 mph /  27.4 km/h 64 % 0 in /  0.0 mm
15:42 70.5 °F /  21.4 °C 58.1 °F /  14.5 °C 30 in /  1015.1 hPa SSW 11 mph /  17.7 km/h 17 mph /  27.4 km/h 65 % 0 in /  0.0 mm
15:47 70.5 °F /  21.4 °C 58.1 °F /  14.5 °C 30 in /  1015.1 hPa West 7 mph /  11.3 km/h 17 mph /  27.4 km/h 65 % 0 in /  0.0 mm
15:52 70.5 °F /  21.4 °C 58.1 °F /  14.5 °C 30 in /  1014.8 hPa SW 9 mph /  14.5 km/h 17 mph /  27.4 km/h 65 % 0 in /  0.0 mm
15:57 70.3 °F /  21.3 °C 57.6 °F /  14.2 °C 30 in /  1015.1 hPa WSW 6 mph /  9.7 km/h 16 mph /  25.7 km/h 64 % 0 in /  0.0 mm
16:02 70.3 °F /  21.3 °C 57.6 °F /  14.2 °C 30 in /  1014.8 hPa SW 7 mph /  11.3 km/h 16 mph /  25.7 km/h 64 % 0 in /  0.0 mm
16:12 70 °F /  21.1 °C 56.8 °F /  13.8 °C 30 in /  1014.8 hPa SW 12 mph /  19.3 km/h 14 mph /  22.5 km/h 63 % 0 in /  0.0 mm
16:17 69.6 °F /  20.9 °C 56.8 °F /  13.8 °C 30 in /  1014.8 hPa SW 3 mph /  4.8 km/h 18 mph /  29.0 km/h 64 % 0 in /  0.0 mm
16:22 69.8 °F /  21.0 °C 57.6 °F /  14.2 °C 30 in /  1014.8 hPa WSW 8 mph /  12.9 km/h 18 mph /  29.0 km/h 65 % 0 in /  0.0 mm
16:32 69.6 °F /  20.9 °C 57.4 °F /  14.1 °C 30 in /  1014.8 hPa West 9 mph /  14.5 km/h 18 mph /  29.0 km/h 65 % 0 in /  0.0 mm
16:37 69.4 °F /  20.8 °C 57.6 °F /  14.2 °C 30 in /  1014.8 hPa WSW 5 mph /  8.0 km/h 16 mph /  25.7 km/h 66 % 0 in /  0.0 mm
16:42 69.4 °F /  20.8 °C 57.6 °F /  14.2 °C 30 in /  1014.8 hPa West 10 mph /  16.1 km/h 16 mph /  25.7 km/h 66 % 0 in /  0.0 mm
16:47 69.4 °F /  20.8 °C 57.9 °F /  14.4 °C 30 in /  1014.8 hPa SW 7 mph /  11.3 km/h 20 mph /  32.2 km/h 67 % 0 in /  0.0 mm
16:52 69.4 °F /  20.8 °C 57.9 °F /  14.4 °C 30 in /  1014.8 hPa West 6 mph /  9.7 km/h 20 mph /  32.2 km/h 67 % 0 in /  0.0 mm
16:57 69.6 °F /  20.9 °C 58.6 °F /  14.8 °C 30 in /  1014.8 hPa SW 8 mph /  12.9 km/h 17 mph /  27.4 km/h 68 % 0 in /  0.0 mm
17:02 69.6 °F /  20.9 °C 59 °F /  15.0 °C 30 in /  1014.8 hPa SW 7 mph /  11.3 km/h 17 mph /  27.4 km/h 69 % 0 in /  0.0 mm
17:07 69.1 °F /  20.6 °C 59.7 °F /  15.4 °C 30 in /  1014.8 hPa WSW 11 mph /  17.7 km/h 18 mph /  29.0 km/h 72 % 0 in /  0.0 mm
17:12 68.5 °F /  20.3 °C 60.3 °F /  15.7 °C 30 in /  1014.8 hPa WSW 6 mph /  9.7 km/h 18 mph /  29.0 km/h 75 % 0 in /  0.0 mm
17:17 67.8 °F /  19.9 °C 60.3 °F /  15.7 °C 30 in /  1014.8 hPa SSW 5 mph /  8.0 km/h 18 mph /  29.0 km/h 77 % 0 in /  0.0 mm
17:22 67.3 °F /  19.6 °C 60.6 °F /  15.9 °C 30 in /  1014.8 hPa SW 11 mph /  17.7 km/h 18 mph /  29.0 km/h 79 % 0 in /  0.0 mm
17:27 66.7 °F /  19.3 °C 60.8 °F /  16.0 °C 30 in /  1015.1 hPa West 6 mph /  9.7 km/h 17 mph /  27.4 km/h 81 % 0 in /  0.0 mm
17:32 66.6 °F /  19.2 °C 61.2 °F /  16.2 °C 30 in /  1015.1 hPa SW 13 mph /  20.9 km/h 17 mph /  27.4 km/h 83 % 0 in /  0.0 mm
17:37 66.4 °F /  19.1 °C 61 °F /  16.1 °C 30 in /  1015.1 hPa SW 5 mph /  8.0 km/h 16 mph /  25.7 km/h 83 % 0 in /  0.0 mm
17:42 66 °F /  18.9 °C 61 °F /  16.1 °C 30 in /  1015.1 hPa WSW 10 mph /  16.1 km/h 16 mph /  25.7 km/h 84 % 0 in /  0.0 mm
17:47 65.7 °F /  18.7 °C 61 °F /  16.1 °C 30 in /  1015.1 hPa WSW 9 mph /  14.5 km/h 17 mph /  27.4 km/h 85 % 0 in /  0.0 mm
17:52 65.7 °F /  18.7 °C 61.3 °F /  16.3 °C 30 in /  1015.1 hPa WSW 6 mph /  9.7 km/h 17 mph /  27.4 km/h 86 % 0 in /  0.0 mm
18:02 65.7 °F /  18.7 °C 61.7 °F /  16.5 °C 30 in /  1014.8 hPa SW 5 mph /  8.0 km/h 17 mph /  27.4 km/h 87 % 0 in /  0.0 mm
18:12 65.5 °F /  18.6 °C 61.9 °F /  16.6 °C 30 in /  1014.8 hPa WSW 8 mph /  12.9 km/h 14 mph /  22.5 km/h 88 % 0 in /  0.0 mm
18:17 65.1 °F /  18.4 °C 61.9 °F /  16.6 °C 30 in /  1014.8 hPa SSW 8 mph /  12.9 km/h 17 mph /  27.4 km/h 89 % 0 in /  0.0 mm
18:22 65.1 °F /  18.4 °C 62.1 °F /  16.7 °C 30 in /  1014.8 hPa SW 7 mph /  11.3 km/h 17 mph /  27.4 km/h 90 % 0 in /  0.0 mm
18:32 64.8 °F /  18.2 °C 61.7 °F /  16.5 °C 30 in /  1014.8 hPa WSW 8 mph /  12.9 km/h 17 mph /  27.4 km/h 90 % 0 in /  0.0 mm
18:42 64.8 °F /  18.2 °C 62.1 °F /  16.7 °C 30 in /  1014.8 hPa SW 10 mph /  16.1 km/h 14 mph /  22.5 km/h 91 % 0 in /  0.0 mm
18:52 64.6 °F /  18.1 °C 62.2 °F /  16.8 °C 30 in /  1014.8 hPa West 7 mph /  11.3 km/h 13 mph /  20.9 km/h 92 % 0 in /  0.0 mm
18:57 64.6 °F /  18.1 °C 62.4 °F /  16.9 °C 30 in /  1014.8 hPa SW 6 mph /  9.7 km/h 10 mph /  16.1 km/h 93 % 0 in /  0.0 mm
19:02 64.4 °F /  18.0 °C 62.1 °F /  16.7 °C 30 in /  1014.8 hPa WSW 5 mph /  8.0 km/h 10 mph /  16.1 km/h 92 % 0 in /  0.0 mm
19:12 64 °F /  17.8 °C 62.1 °F /  16.7 °C 30 in /  1014.8 hPa SW 3 mph /  4.8 km/h 11 mph /  17.7 km/h 93 % 0 in /  0.0 mm
19:17 64 °F /  17.8 °C 62.1 °F /  16.7 °C 30 in /  1014.8 hPa WSW 5 mph /  8.0 km/h 11 mph /  17.7 km/h 93 % 0 in /  0.0 mm
19:27 64 °F /  17.8 °C 62.2 °F /  16.8 °C 30 in /  1014.8 hPa SSW 5 mph /  8.0 km/h 11 mph /  17.7 km/h 94 % 0 in /  0.0 mm
19:32 64.2 °F /  17.9 °C 62.2 °F /  16.8 °C 30 in /  1014.8 hPa SW 5 mph /  8.0 km/h 9 mph /  14.5 km/h 93 % 0 in /  0.0 mm
19:37 64.4 °F /  18.0 °C 62.4 °F /  16.9 °C 30 in /  1014.8 hPa SW 6 mph /  9.7 km/h 8 mph /  12.9 km/h 93 % 0 in /  0.0 mm
19:42 64.6 °F /  18.1 °C 62.4 °F /  16.9 °C 30 in /  1014.4 hPa SW 4 mph /  6.4 km/h 8 mph /  12.9 km/h 93 % 0 in /  0.0 mm
19:47 64.6 °F /  18.1 °C 62.4 °F /  16.9 °C 30 in /  1014.4 hPa WSW 2 mph /  3.2 km/h 7 mph /  11.3 km/h 93 % 0 in /  0.0 mm
19:52 64.8 °F /  18.2 °C 62.4 °F /  16.9 °C 30 in /  1014.4 hPa SSW 3 mph /  4.8 km/h 7 mph /  11.3 km/h 92 % 0 in /  0.0 mm
19:57 64.8 °F /  18.2 °C 62.4 °F /  16.9 °C 30 in /  1014.4 hPa WSW 7 mph /  11.3 km/h 7 mph /  11.3 km/h 92 % 0 in /  0.0 mm
20:02 64.9 °F /  18.3 °C 62.2 °F /  16.8 °C 30 in /  1014.4 hPa SW 7 mph /  11.3 km/h 7 mph /  11.3 km/h 91 % 0 in /  0.0 mm
20:12 65.1 °F /  18.4 °C 62.4 °F /  16.9 °C 30 in /  1014.4 hPa SSW 6 mph /  9.7 km/h 8 mph /  12.9 km/h 91 % 0 in /  0.0 mm
20:17 65.1 °F /  18.4 °C 62.4 °F /  16.9 °C 30 in /  1014.4 hPa South 6 mph /  9.7 km/h 9 mph /  14.5 km/h 91 % 0 in /  0.0 mm
20:22 64.9 °F /  18.3 °C 62.2 °F /  16.8 °C 30 in /  1014.4 hPa WSW 2 mph /  3.2 km/h 9 mph /  14.5 km/h 91 % 0 in /  0.0 mm
20:27 64.8 °F /  18.2 °C 62.4 °F /  16.9 °C 30 in /  1014.4 hPa SW 7 mph /  11.3 km/h 8 mph /  12.9 km/h 92 % 0 in /  0.0 mm
20:32 64.8 °F /  18.2 °C 62.4 °F /  16.9 °C 30 in /  1014.4 hPa WSW 4 mph /  6.4 km/h 8 mph /  12.9 km/h 92 % 0 in /  0.0 mm
20:37 64.8 °F /  18.2 °C 62.4 °F /  16.9 °C 30 in /  1014.4 hPa WSW 6 mph /  9.7 km/h 8 mph /  12.9 km/h 92 % 0 in /  0.0 mm
20:42 64.8 °F /  18.2 °C 62.6 °F /  17.0 °C 30 in /  1014.4 hPa SW 3 mph /  4.8 km/h 8 mph /  12.9 km/h 93 % 0 in /  0.0 mm
20:52 64.8 °F /  18.2 °C 62.4 °F /  16.9 °C 30 in /  1014.4 hPa SW 4 mph /  6.4 km/h 8 mph /  12.9 km/h 92 % 0 in /  0.0 mm
20:57 64.8 °F /  18.2 °C 62.4 °F /  16.9 °C 30 in /  1014.4 hPa SW 6 mph /  9.7 km/h 9 mph /  14.5 km/h 92 % 0 in /  0.0 mm
21:02 64.8 °F /  18.2 °C 62.4 °F /  16.9 °C 30 in /  1014.4 hPa SW 6 mph /  9.7 km/h 9 mph /  14.5 km/h 92 % 0 in /  0.0 mm
21:12 64.9 °F /  18.3 °C 62.6 °F /  17.0 °C 30 in /  1014.4 hPa SW 9 mph /  14.5 km/h 10 mph /  16.1 km/h 92 % 0 in /  0.0 mm
21:17 64.9 °F /  18.3 °C 62.6 °F /  17.0 °C 30 in /  1014.4 hPa SW 3 mph /  4.8 km/h 11 mph /  17.7 km/h 92 % 0 in /  0.0 mm
21:22 64.9 °F /  18.3 °C 62.6 °F /  17.0 °C 30 in /  1014.4 hPa SW 3 mph /  4.8 km/h 11 mph /  17.7 km/h 92 % 0 in /  0.0 mm
21:27 64.9 °F /  18.3 °C 62.6 °F /  17.0 °C 30 in /  1014.4 hPa WSW 7 mph /  11.3 km/h 11 mph /  17.7 km/h 92 % 0 in /  0.0 mm
21:37 64.8 °F /  18.2 °C 62.4 °F /  16.9 °C 30 in /  1014.4 hPa WSW 4 mph /  6.4 km/h 9 mph /  14.5 km/h 92 % 0 in /  0.0 mm
21:42 64.8 °F /  18.2 °C 62.6 °F /  17.0 °C 30 in /  1014.4 hPa SSW 4 mph /  6.4 km/h 9 mph /  14.5 km/h 93 % 0 in /  0.0 mm
21:52 64.8 °F /  18.2 °C 62.6 °F /  17.0 °C 30 in /  1014.8 hPa SW 4 mph /  6.4 km/h 10 mph /  16.1 km/h 93 % 0 in /  0.0 mm
22:02 64.8 °F /  18.2 °C 62.6 °F /  17.0 °C 30 in /  1014.8 hPa SW 6 mph /  9.7 km/h 11 mph /  17.7 km/h 93 % 0 in /  0.0 mm
22:12 64.8 °F /  18.2 °C 62.6 °F /  17.0 °C 30 in /  1014.8 hPa WSW 5 mph /  8.0 km/h 10 mph /  16.1 km/h 93 % 0 in /  0.0 mm
22:17 64.8 °F /  18.2 °C 62.6 °F /  17.0 °C 30 in /  1014.8 hPa WSW 7 mph /  11.3 km/h 10 mph /  16.1 km/h 93 % 0 in /  0.0 mm
22:22 64.9 °F /  18.3 °C 62.8 °F /  17.1 °C 30 in /  1014.8 hPa SW 3 mph /  4.8 km/h 11 mph /  17.7 km/h 93 % 0 in /  0.0 mm
22:32 64.9 °F /  18.3 °C 62.8 °F /  17.1 °C 30 in /  1014.8 hPa SW 5 mph /  8.0 km/h 12 mph /  19.3 km/h 93 % 0 in /  0.0 mm
22:42 64.8 °F /  18.2 °C 62.6 °F /  17.0 °C 30 in /  1014.8 hPa SW 3 mph /  4.8 km/h 12 mph /  19.3 km/h 93 % 0 in /  0.0 mm
22:52 64.8 °F /  18.2 °C 62.6 °F /  17.0 °C 30 in /  1014.8 hPa WSW 4 mph /  6.4 km/h 8 mph /  12.9 km/h 93 % 0 in /  0.0 mm
22:57 64.8 °F /  18.2 °C 62.6 °F /  17.0 °C 30 in /  1014.8 hPa SW 4 mph /  6.4 km/h 8 mph /  12.9 km/h 93 % 0 in /  0.0 mm
23:02 64.8 °F /  18.2 °C 62.6 °F /  17.0 °C 30 in /  1014.8 hPa SW 7 mph /  11.3 km/h 8 mph /  12.9 km/h 93 % 0 in /  0.0 mm
23:12 64.8 °F /  18.2 °C 62.6 °F /  17.0 °C 30 in /  1014.8 hPa SW 8 mph /  12.9 km/h 11 mph /  17.7 km/h 93 % 0 in /  0.0 mm
23:17 64.8 °F /  18.2 °C 62.6 °F /  17.0 °C 30 in /  1014.8 hPa SW 7 mph /  11.3 km/h 9 mph /  14.5 km/h 93 % 0 in /  0.0 mm
23:22 64.6 °F /  18.1 °C 62.4 °F /  16.9 °C 30 in /  1014.8 hPa SW 4 mph /  6.4 km/h 9 mph /  14.5 km/h 93 % 0 in /  0.0 mm
23:32 64.6 °F /  18.1 °C 62.4 °F /  16.9 °C 30 in /  1014.8 hPa SW 1 mph /  1.6 km/h 9 mph /  14.5 km/h 93 % 0 in /  0.0 mm
23:37 64.6 °F /  18.1 °C 62.4 °F /  16.9 °C 30 in /  1014.4 hPa SW 6 mph /  9.7 km/h 8 mph /  12.9 km/h 93 % 0 in /  0.0 mm
23:42 64.6 °F /  18.1 °C 62.4 °F /  16.9 °C 30 in /  1014.4 hPa WSW 3 mph /  4.8 km/h 8 mph /  12.9 km/h 93 % 0 in /  0.0 mm
23:47 64.6 °F /  18.1 °C 62.4 °F /  16.9 °C 30 in /  1014.4 hPa SW 7 mph /  11.3 km/h 9 mph /  14.5 km/h 93 % 0 in /  0.0 mm
23:52 64.6 °F /  18.1 °C 62.4 °F /  16.9 °C 30 in /  1014.4 hPa SW 6 mph /  9.7 km/h 9 mph /  14.5 km/h 93 % 0 in /  0.0 mm
23:57 64.6 °F /  18.1 °C 62.4 °F /  16.9 °C 30 in /  1014.4 hPa WSW 3 mph /  4.8 km/h 9 mph /  14.5 km/h 93 % 0 in /  0.0 mm
Meteo18
Compliments of Weather Underground - 4 mb

Script developed by  Jim McMurry - jmcmurry@mwt.net Adapted for the template by  Wim van der Kuil - Leuven-Template.eu

You find our weather info also at:

European Weather Network

Weather Underground

Equipment we use:

Weather-station
Davis Vue

Weather-program
Meteohub

Weather-server
Raspberry PI 2 B+

Provider
1 and 1

Davis Vue

Meteohub

Raspberry PI 2 B+

1 and 1